createdAt,value
2023-04-19T00:00:21.800Z,12.64
2023-04-19T00:02:52.691Z,12.65
2023-04-19T00:05:24.812Z,12.62
2023-04-19T00:07:54.967Z,12.60
2023-04-19T00:10:24.912Z,12.62
2023-04-19T00:12:55.213Z,12.65
2023-04-19T00:15:27.686Z,12.68
2023-04-19T00:17:58.023Z,12.74
2023-04-19T00:20:28.032Z,12.78
2023-04-19T00:22:58.983Z,12.81
2023-04-19T00:25:30.978Z,12.85
2023-04-19T00:28:00.806Z,12.84
2023-04-19T00:30:33.405Z,12.84
2023-04-19T00:33:03.443Z,12.85
2023-04-19T00:35:33.403Z,12.86
2023-04-19T00:38:03.748Z,12.88
2023-04-19T00:40:35.059Z,12.93
2023-04-19T00:43:04.971Z,12.94
2023-04-19T00:45:38.863Z,12.98
2023-04-19T00:48:09.258Z,12.99
2023-04-19T00:50:39.596Z,12.99
2023-04-19T00:53:10.820Z,13.02
2023-04-19T00:55:42.601Z,13.06
2023-04-19T00:58:13.005Z,13.09
2023-04-19T01:00:46.040Z,13.09
2023-04-19T01:03:17.220Z,13.09
2023-04-19T01:05:47.470Z,13.08
2023-04-19T01:08:17.388Z,13.06
2023-04-19T01:10:47.356Z,13.04
2023-04-19T01:13:17.192Z,13.03
2023-04-19T01:15:49.967Z,13.03
2023-04-19T01:18:20.053Z,13.03
2023-04-19T01:20:49.897Z,13.02
2023-04-19T01:23:22.553Z,13.02
2023-04-19T01:25:52.876Z,12.99
2023-04-19T01:28:22.906Z,13.00
2023-04-19T01:30:54.400Z,12.95
2023-04-19T01:33:24.696Z,12.95
2023-04-19T01:35:54.870Z,12.95
2023-04-19T01:38:27.422Z,12.97
2023-04-19T01:40:57.836Z,12.92
2023-04-19T01:43:27.690Z,12.90
2023-04-19T01:45:57.985Z,12.89
2023-04-19T01:48:28.067Z,12.88
2023-04-19T01:50:58.340Z,12.86
2023-04-19T01:53:31.145Z,12.82
2023-04-19T01:56:01.140Z,12.83
2023-04-19T01:58:31.108Z,12.80
2023-04-19T02:01:01.070Z,12.78
2023-04-19T02:03:31.221Z,12.78
2023-04-19T02:06:01.453Z,12.78
2023-04-19T02:08:34.549Z,12.77
2023-04-19T02:11:09.016Z,12.76
2023-04-19T02:13:39.162Z,12.75
2023-04-19T02:16:10.316Z,12.74
2023-04-19T02:18:40.900Z,12.72
2023-04-19T02:21:12.407Z,12.71
2023-04-19T02:23:44.930Z,12.61
2023-04-19T02:26:14.830Z,12.61
2023-04-19T02:28:44.724Z,12.59
2023-04-19T02:31:14.834Z,12.53
2023-04-19T02:33:46.937Z,12.52
2023-04-19T02:36:20.154Z,12.49
2023-04-19T02:38:52.675Z,12.46
2023-04-19T02:41:24.116Z,12.46
2023-04-19T02:43:54.159Z,12.44
2023-04-19T02:46:24.237Z,12.43
2023-04-19T02:48:54.324Z,12.43
2023-04-19T02:51:24.195Z,12.44
2023-04-19T02:53:56.801Z,12.44
2023-04-19T02:56:26.750Z,12.43
2023-04-19T02:58:57.602Z,12.42
2023-04-19T03:01:27.577Z,12.34
2023-04-19T03:03:57.700Z,12.38
2023-04-19T03:06:28.163Z,12.37
2023-04-19T03:09:01.046Z,12.34
2023-04-19T03:11:30.927Z,12.42
2023-04-19T03:14:00.981Z,12.46
2023-04-19T03:16:30.822Z,12.46
2023-04-19T03:19:00.818Z,12.48
2023-04-19T03:21:30.889Z,12.48
2023-04-19T03:24:04.175Z,12.51
2023-04-19T03:26:34.165Z,12.51
2023-04-19T03:29:04.782Z,12.50
2023-04-19T03:31:34.761Z,12.51
2023-04-19T03:34:04.899Z,12.54
2023-04-19T03:36:35.043Z,12.53
2023-04-19T03:39:08.917Z,12.53
2023-04-19T03:41:38.875Z,12.55
2023-04-19T03:44:08.776Z,12.59
2023-04-19T03:46:38.825Z,12.56
2023-04-19T03:49:08.893Z,12.60
2023-04-19T03:51:38.924Z,12.62
2023-04-19T03:54:11.719Z,12.65
2023-04-19T03:56:41.542Z,12.62
2023-04-19T03:59:12.632Z,12.66
2023-04-19T04:01:42.852Z,12.64
2023-04-19T04:04:15.944Z,12.64
2023-04-19T04:06:46.236Z,12.61
2023-04-19T04:09:18.827Z,12.54
2023-04-19T04:11:49.121Z,12.51
2023-04-19T04:14:19.050Z,12.49
2023-04-19T04:16:49.262Z,12.45
2023-04-19T04:19:20.024Z,12.39
2023-04-19T04:21:51.245Z,12.39
2023-04-19T04:24:24.201Z,12.36
2023-04-19T04:26:54.695Z,12.33
2023-04-19T04:29:24.588Z,12.26
2023-04-19T04:31:54.682Z,12.19
2023-04-19T04:34:24.864Z,12.15
2023-04-19T04:36:55.126Z,12.12
2023-04-19T04:39:27.592Z,12.09
2023-04-19T04:41:57.972Z,12.03
2023-04-19T04:44:28.396Z,12.01
2023-04-19T04:46:58.351Z,11.98
2023-04-19T04:49:28.276Z,11.95
2023-04-19T04:51:58.200Z,11.90
2023-04-19T04:54:30.862Z,11.89
2023-04-19T04:57:02.956Z,11.88
2023-04-19T04:59:33.103Z,11.85
2023-04-19T05:02:03.159Z,11.82
2023-04-19T05:04:33.135Z,11.79
2023-04-19T05:07:03.126Z,11.71
2023-04-19T05:09:35.710Z,11.59
2023-04-19T05:12:05.745Z,11.59
2023-04-19T05:14:35.807Z,11.54
2023-04-19T05:17:07.166Z,11.53
2023-04-19T05:19:37.406Z,11.48
2023-04-19T05:22:07.319Z,11.47
2023-04-19T05:24:42.421Z,11.43
2023-04-19T05:27:12.585Z,11.44
2023-04-19T05:29:42.794Z,11.42
2023-04-19T05:32:12.917Z,11.39
2023-04-19T05:34:42.878Z,11.33
2023-04-19T05:37:15.538Z,11.28
2023-04-19T05:39:48.003Z,11.25
2023-04-19T05:42:17.872Z,11.26
2023-04-19T05:44:47.905Z,11.29
2023-04-19T05:47:18.297Z,11.27
2023-04-19T05:49:50.346Z,11.26
2023-04-19T05:52:20.294Z,11.24
2023-04-19T05:54:52.853Z,11.22
2023-04-19T05:57:22.876Z,11.19
2023-04-19T05:59:52.965Z,11.21
2023-04-19T06:02:23.618Z,11.23
2023-04-19T06:04:53.605Z,11.21
2023-04-19T06:07:32.677Z,11.20
2023-04-19T06:10:07.563Z,11.14
2023-04-19T06:12:37.469Z,11.11
2023-04-19T06:15:09.536Z,11.10
2023-04-19T06:17:39.385Z,11.08
2023-04-19T06:20:12.961Z,11.10
2023-04-19T06:22:45.781Z,11.11
2023-04-19T06:25:18.552Z,11.14
2023-04-19T06:27:48.525Z,11.16
2023-04-19T06:30:21.425Z,11.20
2023-04-19T06:32:51.390Z,11.22
2023-04-19T06:35:21.747Z,11.20
2023-04-19T06:37:52.084Z,11.21
2023-04-19T06:40:25.080Z,11.29
2023-04-19T06:42:55.816Z,11.34
2023-04-19T06:45:26.435Z,11.35
2023-04-19T06:47:56.976Z,11.44
2023-04-19T06:50:27.296Z,11.56
2023-04-19T06:52:57.344Z,11.64
2023-04-19T06:55:30.056Z,11.71
2023-04-19T06:57:59.957Z,11.88
2023-04-19T07:00:30.260Z,12.25
2023-04-19T07:03:00.895Z,12.63
2023-04-19T07:05:31.174Z,12.95
2023-04-19T07:08:03.945Z,13.26
2023-04-19T07:10:36.487Z,13.38
2023-04-19T07:13:08.514Z,13.56
2023-04-19T07:15:38.747Z,13.73
2023-04-19T07:18:10.630Z,13.84
2023-04-19T07:20:44.765Z,14.02
2023-04-19T07:23:14.796Z,14.18
2023-04-19T07:25:47.768Z,14.32
2023-04-19T07:28:17.717Z,14.40
2023-04-19T07:30:47.966Z,14.59
2023-04-19T07:33:17.924Z,14.64
2023-04-19T07:35:47.874Z,14.85
2023-04-19T07:38:18.147Z,15.06
2023-04-19T07:40:50.837Z,15.13
2023-04-19T07:43:21.042Z,15.42
2023-04-19T07:45:51.097Z,15.50
2023-04-19T07:48:21.106Z,15.73
2023-04-19T07:50:51.834Z,15.94
2023-04-19T07:53:21.770Z,15.98
2023-04-19T07:55:54.357Z,15.96
2023-04-19T07:58:24.453Z,16.15
2023-04-19T08:00:54.438Z,16.10
2023-04-19T08:03:24.587Z,16.11
2023-04-19T08:05:54.740Z,16.11
2023-04-19T08:08:26.116Z,16.26
2023-04-19T08:11:01.816Z,16.26
2023-04-19T08:13:32.051Z,16.37
2023-04-19T08:18:36.485Z,16.82
2023-04-19T08:21:09.791Z,16.95
2023-04-19T08:23:47.769Z,16.82
2023-04-19T08:26:21.097Z,16.58
2023-04-19T08:28:51.601Z,16.73
2023-04-19T08:31:22.364Z,17.01
2023-04-19T08:33:52.335Z,17.12
2023-04-19T08:36:35.439Z,17.09
2023-04-19T08:39:17.705Z,17.06
2023-04-19T08:42:06.897Z,17.22
2023-04-19T08:44:59.093Z,17.05
2023-04-19T08:47:34.058Z,17.10
2023-04-19T08:50:17.547Z,17.14
2023-04-19T08:53:02.744Z,17.12
2023-04-19T08:55:40.917Z,17.19
2023-04-19T08:58:28.601Z,16.93
2023-04-19T09:01:03.189Z,16.94
2023-04-19T09:03:40.913Z,17.08
2023-04-19T09:06:17.855Z,17.14
2023-04-19T09:08:48.185Z,17.39
2023-04-19T09:11:18.322Z,17.56
2023-04-19T09:13:53.346Z,17.52
2023-04-19T09:16:30.917Z,17.48
2023-04-19T09:21:39.094Z,17.63
2023-04-19T09:24:09.975Z,17.82
2023-04-19T09:26:40.228Z,18.14
2023-04-19T09:29:15.170Z,18.11
2023-04-19T09:32:00.586Z,18.12
2023-04-19T09:34:31.256Z,18.22
2023-04-19T09:37:12.044Z,18.14
2023-04-19T09:39:47.472Z,18.30
2023-04-19T09:42:24.155Z,18.29
2023-04-19T09:45:28.402Z,18.50
2023-04-19T09:48:07.793Z,18.43
2023-04-19T09:50:51.364Z,18.68
2023-04-19T09:53:30.026Z,18.56
2023-04-19T09:56:02.376Z,18.47
2023-04-19T10:01:14.781Z,18.31
2023-04-19T10:03:47.877Z,18.34
2023-04-19T10:08:53.873Z,18.50
2023-04-19T10:11:30.072Z,18.54
2023-04-19T10:14:04.773Z,18.48
2023-04-19T10:16:41.465Z,18.48
2023-04-19T10:19:13.674Z,18.50
2023-04-19T10:21:46.812Z,18.25
2023-04-19T10:24:18.691Z,18.25
2023-04-19T10:27:12.450Z,18.36
2023-04-19T10:29:58.920Z,18.39
2023-04-19T10:32:41.382Z,18.22
2023-04-19T10:35:14.541Z,18.30
2023-04-19T10:37:44.881Z,18.42
2023-04-19T10:40:15.400Z,18.36
2023-04-19T10:43:15.264Z,18.29
2023-04-19T10:45:45.654Z,18.46
2023-04-19T10:48:41.433Z,18.18
2023-04-19T10:51:19.343Z,18.07
2023-04-19T10:53:54.609Z,17.96
2023-04-19T10:56:47.818Z,18.25
2023-04-19T10:59:24.909Z,18.50
2023-04-19T11:01:59.931Z,18.65
2023-04-19T11:05:14.617Z,18.83
2023-04-19T11:07:48.913Z,18.86
2023-04-19T11:10:31.878Z,18.70
2023-04-19T11:13:02.242Z,18.65
2023-04-19T11:15:32.192Z,18.64
2023-04-19T11:18:12.714Z,18.34
2023-04-19T11:20:46.119Z,18.27
2023-04-19T11:23:21.916Z,18.42
2023-04-19T11:25:55.000Z,18.20
2023-04-19T11:28:24.968Z,18.38
2023-04-19T11:30:56.844Z,18.64
2023-04-19T11:33:28.916Z,18.67
2023-04-19T11:35:58.804Z,18.97
2023-04-19T11:38:34.005Z,19.18
2023-04-19T11:41:04.462Z,19.40
2023-04-19T11:43:40.655Z,19.24
2023-04-19T11:46:12.254Z,19.18
2023-04-19T11:48:43.110Z,19.26
2023-04-19T11:51:13.777Z,19.30
2023-04-19T11:53:46.725Z,19.40
2023-04-19T11:56:18.227Z,19.32
2023-04-19T11:58:50.166Z,19.22
2023-04-19T12:01:24.793Z,19.07
2023-04-19T12:03:56.777Z,18.98
2023-04-19T12:06:28.763Z,19.22
2023-04-19T12:09:01.805Z,19.12
2023-04-19T12:11:50.463Z,19.08
2023-04-19T12:14:23.066Z,19.24
2023-04-19T12:17:11.918Z,19.06
2023-04-19T12:19:47.017Z,19.02
2023-04-19T12:22:20.502Z,19.11
2023-04-19T12:24:56.141Z,19.11
2023-04-19T12:27:26.170Z,19.09
2023-04-19T12:29:56.392Z,19.11
2023-04-19T12:32:26.245Z,19.18
2023-04-19T12:34:56.980Z,19.11
2023-04-19T12:37:26.996Z,19.26
2023-04-19T12:40:00.585Z,19.42
2023-04-19T12:42:30.467Z,19.35
2023-04-19T12:45:00.448Z,19.26
2023-04-19T12:47:30.897Z,19.24
2023-04-19T12:50:02.013Z,19.36
2023-04-19T12:52:31.816Z,19.29
2023-04-19T12:55:04.630Z,19.26
2023-04-19T12:57:34.549Z,19.19
2023-04-19T13:00:05.222Z,19.15
2023-04-19T13:02:37.420Z,19.00
2023-04-19T13:05:08.180Z,19.09
2023-04-19T13:07:38.272Z,19.43
2023-04-19T13:10:12.653Z,19.53
2023-04-19T13:12:43.025Z,19.67
2023-04-19T13:15:13.855Z,19.69
2023-04-19T13:17:43.822Z,19.84
2023-04-19T13:20:17.184Z,19.83
2023-04-19T13:22:47.065Z,19.88
2023-04-19T13:25:19.673Z,20.01
2023-04-19T13:27:49.655Z,20.00
2023-04-19T13:30:19.644Z,20.17
2023-04-19T13:32:49.730Z,20.05
2023-04-19T13:35:19.752Z,20.02
2023-04-19T13:37:51.655Z,20.06
2023-04-19T13:40:24.176Z,20.32
2023-04-19T13:42:54.572Z,20.40
2023-04-19T13:45:24.713Z,20.48
2023-04-19T13:47:54.769Z,20.58
2023-04-19T13:50:24.713Z,20.64
2023-04-19T13:52:54.889Z,20.65
2023-04-19T13:55:30.554Z,20.40
2023-04-19T13:58:00.430Z,20.36
2023-04-19T14:00:30.490Z,20.32
2023-04-19T14:03:03.937Z,20.25
2023-04-19T14:05:33.945Z,20.04
2023-04-19T14:08:03.750Z,20.09
2023-04-19T14:10:37.583Z,20.21
2023-04-19T14:13:07.526Z,20.15
2023-04-19T14:15:40.283Z,20.41
2023-04-19T14:18:10.313Z,20.68
2023-04-19T14:20:40.399Z,20.64
2023-04-19T14:23:10.350Z,20.51
2023-04-19T14:25:42.909Z,20.55
2023-04-19T14:28:15.300Z,20.60
2023-04-19T14:30:45.272Z,20.70
2023-04-19T14:33:15.236Z,20.74
2023-04-19T14:35:45.640Z,20.70
2023-04-19T14:38:15.820Z,20.76
2023-04-19T14:40:49.810Z,20.78
2023-04-19T14:43:19.746Z,20.86
2023-04-19T14:45:51.524Z,20.61
2023-04-19T14:48:22.356Z,20.48
2023-04-19T14:50:52.498Z,20.39
2023-04-19T14:53:22.718Z,20.13
2023-04-19T14:55:55.760Z,20.19
2023-04-19T14:58:25.782Z,20.15
2023-04-19T15:00:55.998Z,20.07
2023-04-19T15:03:26.297Z,20.16
2023-04-19T15:05:56.403Z,20.32
2023-04-19T15:08:30.734Z,20.43
2023-04-19T15:11:03.658Z,20.47
2023-04-19T15:13:34.168Z,20.42
2023-04-19T15:16:04.169Z,20.41
2023-04-19T15:18:34.118Z,20.40
2023-04-19T15:21:05.498Z,20.41
2023-04-19T15:23:35.388Z,20.42
2023-04-19T15:26:08.051Z,20.15
2023-04-19T15:28:38.881Z,20.09
2023-04-19T15:31:10.718Z,19.88
2023-04-19T15:33:41.217Z,19.65
2023-04-19T15:36:11.215Z,19.62
2023-04-19T15:38:43.856Z,19.73
2023-04-19T15:41:16.765Z,19.78
2023-04-19T15:43:46.725Z,19.70
2023-04-19T15:46:17.652Z,19.56
2023-04-19T15:48:48.682Z,19.55
2023-04-19T15:51:18.731Z,19.62
2023-04-19T15:53:48.732Z,19.71
2023-04-19T15:56:21.494Z,19.61
2023-04-19T15:58:51.493Z,19.60
2023-04-19T16:01:23.140Z,19.63
2023-04-19T16:03:53.421Z,19.71
2023-04-19T16:06:23.533Z,19.79
2023-04-19T16:08:53.762Z,19.60
2023-04-19T16:11:26.732Z,19.33
2023-04-19T16:13:56.915Z,19.11
2023-04-19T16:16:27.186Z,19.19
2023-04-19T16:18:57.460Z,19.22
2023-04-19T16:21:28.779Z,19.14
2023-04-19T16:24:00.949Z,19.05
2023-04-19T16:26:33.845Z,19.04
2023-04-19T16:29:05.613Z,18.79
2023-04-19T16:31:35.749Z,18.74
2023-04-19T16:34:08.708Z,18.57
2023-04-19T16:36:38.637Z,18.63
2023-04-19T16:39:08.488Z,18.56
2023-04-19T16:41:41.278Z,18.55
2023-04-19T16:44:11.253Z,18.51
2023-04-19T16:46:41.274Z,18.44
2023-04-19T16:49:12.205Z,18.45
2023-04-19T16:51:42.129Z,18.35
2023-04-19T16:54:12.022Z,18.12
2023-04-19T16:56:44.669Z,18.15
2023-04-19T16:59:15.066Z,17.98
2023-04-19T17:01:45.166Z,17.81
2023-04-19T17:04:15.423Z,17.77
2023-04-19T17:06:45.409Z,17.72
2023-04-19T17:09:15.603Z,17.75
2023-04-19T17:11:48.245Z,17.66
2023-04-19T17:14:18.468Z,17.47
2023-04-19T17:16:48.483Z,17.36
2023-04-19T17:19:19.012Z,17.28
2023-04-19T17:21:49.792Z,17.28
2023-04-19T17:24:19.974Z,17.22
2023-04-19T17:26:52.483Z,17.22
2023-04-19T17:29:22.360Z,17.14
2023-04-19T17:31:52.364Z,17.10
2023-04-19T17:34:22.674Z,17.03
2023-04-19T17:36:52.636Z,16.96
2023-04-19T17:39:22.774Z,16.91
2023-04-19T17:41:55.223Z,16.89
2023-04-19T17:44:25.649Z,16.85
2023-04-19T17:46:55.598Z,16.77
2023-04-19T17:49:27.259Z,16.68
2023-04-19T17:51:58.264Z,16.62
2023-04-19T17:54:28.207Z,16.58
2023-04-19T17:57:02.707Z,16.51
2023-04-19T17:59:32.868Z,16.45
2023-04-19T18:02:02.908Z,16.41
2023-04-19T18:04:35.145Z,16.22
2023-04-19T18:07:05.175Z,16.19
2023-04-19T18:09:35.191Z,16.05
2023-04-19T18:12:08.309Z,15.90
2023-04-19T18:14:38.976Z,15.82
2023-04-19T18:17:09.126Z,15.82
2023-04-19T18:19:39.901Z,15.67
2023-04-19T18:22:09.939Z,15.59
2023-04-19T18:24:40.992Z,15.50
2023-04-19T18:27:13.796Z,15.35
2023-04-19T18:29:43.697Z,15.29
2023-04-19T18:32:13.713Z,15.24
2023-04-19T18:34:43.608Z,15.23
2023-04-19T18:37:18.848Z,15.24
2023-04-19T18:39:49.059Z,15.16
2023-04-19T18:42:21.669Z,15.08
2023-04-19T18:44:54.213Z,15.09
2023-04-19T18:47:24.682Z,15.05
2023-04-19T18:52:27.641Z,15.09
2023-04-19T18:54:58.623Z,15.03
2023-04-19T18:57:34.558Z,14.99
2023-04-19T19:00:06.724Z,14.95
2023-04-19T19:02:38.440Z,14.87
2023-04-19T19:05:13.758Z,14.84
2023-04-19T19:07:45.416Z,14.81
2023-04-19T19:10:20.979Z,14.82
2023-04-19T19:12:55.166Z,14.77
2023-04-19T19:15:25.144Z,14.70
2023-04-19T19:17:55.234Z,14.56
2023-04-19T19:20:26.258Z,14.55
2023-04-19T19:22:56.110Z,14.53
2023-04-19T19:25:26.259Z,14.52
2023-04-19T19:28:06.144Z,14.49
2023-04-19T19:30:45.063Z,14.51
2023-04-19T19:33:16.674Z,14.45
2023-04-19T19:35:46.718Z,14.38
2023-04-19T19:38:16.644Z,14.36
2023-04-19T19:41:22.542Z,14.28
2023-04-19T19:43:40.189Z,14.24
2023-04-19T19:46:10.945Z,14.20
2023-04-19T19:48:43.058Z,14.11
2023-04-19T19:51:42.231Z,14.02
2023-04-19T19:54:02.958Z,14.00
2023-04-19T19:56:34.806Z,14.00
2023-04-19T19:59:07.479Z,13.98
2023-04-19T20:01:37.426Z,13.95
2023-04-19T20:04:07.784Z,13.89
2023-04-19T20:07:24.718Z,13.88
2023-04-19T20:09:28.135Z,13.82
2023-04-19T20:11:58.045Z,13.64
2023-04-19T20:14:31.199Z,13.60
2023-04-19T20:17:01.273Z,13.53
2023-04-19T20:19:31.253Z,13.44
2023-04-19T20:22:04.126Z,13.39
2023-04-19T20:24:34.397Z,13.29
2023-04-19T20:27:04.466Z,13.17
2023-04-19T20:29:37.051Z,13.04
2023-04-19T20:32:08.883Z,13.07
2023-04-19T20:34:40.328Z,13.04
2023-04-19T20:37:10.507Z,13.04
2023-04-19T20:39:42.502Z,13.00
2023-04-19T20:42:12.529Z,12.98
2023-04-19T20:44:45.119Z,12.86
2023-04-19T20:47:16.178Z,12.84
2023-04-19T20:49:46.192Z,12.79
2023-04-19T20:52:16.414Z,12.78
2023-04-19T20:54:46.321Z,12.69
2023-04-19T20:57:16.281Z,12.67
2023-04-19T20:59:49.251Z,12.63
2023-04-19T21:02:19.433Z,12.62
2023-04-19T21:04:49.351Z,12.53
2023-04-19T21:07:20.217Z,12.41
2023-04-19T21:09:50.098Z,12.33
2023-04-19T21:12:20.452Z,12.27
2023-04-19T21:14:53.106Z,12.20
2023-04-19T21:17:23.531Z,12.17
2023-04-19T21:19:53.530Z,12.15
2023-04-19T21:22:23.458Z,12.07
2023-04-19T21:24:53.378Z,12.02
2023-04-19T21:27:23.356Z,12.01
2023-04-19T21:29:55.969Z,11.92
2023-04-19T21:32:28.310Z,11.94
2023-04-19T21:34:58.690Z,11.92
2023-04-19T21:37:33.949Z,11.85
2023-04-19T21:40:03.870Z,11.80
2023-04-19T21:42:33.822Z,11.75
2023-04-19T21:45:07.087Z,11.78
2023-04-19T21:47:37.014Z,11.77
2023-04-19T21:50:07.655Z,11.77
2023-04-19T21:52:37.634Z,11.72
2023-04-19T21:55:08.759Z,11.66
2023-04-19T21:57:38.758Z,11.62
2023-04-19T22:00:12.614Z,11.62
2023-04-19T22:02:42.583Z,11.61
2023-04-19T22:05:14.092Z,11.60
2023-04-19T22:07:43.909Z,11.62
2023-04-19T22:10:15.126Z,11.60
2023-04-19T22:12:57.429Z,11.53
2023-04-19T22:15:31.780Z,11.46
2023-04-19T22:18:03.255Z,11.48
2023-04-19T22:20:33.962Z,11.37
2023-04-19T22:23:04.024Z,11.35
2023-04-19T22:25:34.153Z,11.34
2023-04-19T22:28:06.104Z,11.34
2023-04-19T22:30:40.069Z,11.36
2023-04-19T22:33:10.272Z,11.27
2023-04-19T22:35:40.453Z,11.21
2023-04-19T22:38:10.528Z,11.18
2023-04-19T22:40:40.891Z,11.15
2023-04-19T22:43:10.917Z,11.07
2023-04-19T22:45:44.801Z,11.02
2023-04-19T22:48:17.468Z,10.97
2023-04-19T22:50:47.604Z,10.93
2023-04-19T22:53:17.446Z,10.89
2023-04-19T22:55:48.522Z,10.91
2023-04-19T22:58:18.538Z,10.96
2023-04-19T23:00:51.082Z,10.94
2023-04-19T23:03:21.106Z,10.88
2023-04-19T23:05:50.976Z,10.79
2023-04-19T23:08:21.110Z,10.71
2023-04-19T23:10:57.195Z,10.75
2023-04-19T23:13:27.014Z,10.73
2023-04-19T23:15:59.727Z,10.71
2023-04-19T23:18:30.196Z,10.72
2023-04-19T23:20:59.995Z,10.75
2023-04-19T23:23:29.859Z,10.67
2023-04-19T23:25:59.792Z,10.61
2023-04-19T23:28:29.680Z,10.58
2023-04-19T23:31:02.189Z,10.57
2023-04-19T23:33:32.130Z,10.64
2023-04-19T23:36:02.106Z,10.64
2023-04-19T23:38:31.954Z,10.54
2023-04-19T23:41:01.868Z,10.51
2023-04-19T23:43:31.874Z,10.48
2023-04-19T23:46:04.471Z,10.42
2023-04-19T23:48:34.797Z,10.38
2023-04-19T23:51:04.691Z,10.40
2023-04-19T23:53:34.528Z,10.31
2023-04-19T23:56:04.668Z,10.28
2023-04-19T23:58:34.479Z,10.24
